sensor_id;sensor_type;location;lat;lon;timestamp;temperature;humidity
17843;DHT22;69286;48.222;16.332;2024-01-30T00:01:10;3.20;99.90
17843;DHT22;69286;48.222;16.332;2024-01-30T00:03:38;3.10;99.90
17843;DHT22;69286;48.222;16.332;2024-01-30T00:06:06;3.10;99.90
17843;DHT22;69286;48.222;16.332;2024-01-30T00:08:33;3.00;99.90
17843;DHT22;69286;48.222;16.332;2024-01-30T00:11:00;3.00;99.90
17843;DHT22;69286;48.222;16.332;2024-01-30T00:13:27;3.00;99.90
17843;DHT22;69286;48.222;16.332;2024-01-30T00:15:54;3.00;99.90
17843;DHT22;69286;48.222;16.332;2024-01-30T00:18:21;2.90;99.90
17843;DHT22;69286;48.222;16.332;2024-01-30T00:20:49;2.90;99.90
17843;DHT22;69286;48.222;16.332;2024-01-30T00:23:16;2.90;99.90
17843;DHT22;69286;48.222;16.332;2024-01-30T00:25:43;2.90;99.90
17843;DHT22;69286;48.222;16.332;2024-01-30T00:28:10;2.80;99.90
17843;DHT22;69286;48.222;16.332;2024-01-30T00:30:37;2.90;99.90
17843;DHT22;69286;48.222;16.332;2024-01-30T00:33:04;2.80;99.90
17843;DHT22;69286;48.222;16.332;2024-01-30T00:35:31;2.80;99.90
17843;DHT22;69286;48.222;16.332;2024-01-30T00:38:00;2.80;99.90
17843;DHT22;69286;48.222;16.332;2024-01-30T00:40:27;2.80;99.90
17843;DHT22;69286;48.222;16.332;2024-01-30T00:42:53;2.80;99.90
17843;DHT22;69286;48.222;16.332;2024-01-30T00:45:21;2.80;99.90
17843;DHT22;69286;48.222;16.332;2024-01-30T00:47:48;2.80;99.90
17843;DHT22;69286;48.222;16.332;2024-01-30T00:50:15;2.80;99.90
17843;DHT22;69286;48.222;16.332;2024-01-30T00:52:42;2.70;99.90
17843;DHT22;69286;48.222;16.332;2024-01-30T00:55:12;2.70;99.90
17843;DHT22;69286;48.222;16.332;2024-01-30T00:57:40;2.70;99.90
17843;DHT22;69286;48.222;16.332;2024-01-30T01:00:08;2.70;99.90
17843;DHT22;69286;48.222;16.332;2024-01-30T01:02:35;2.60;99.90
17843;DHT22;69286;48.222;16.332;2024-01-30T01:05:02;2.60;99.90
17843;DHT22;69286;48.222;16.332;2024-01-30T01:07:30;2.60;99.90
17843;DHT22;69286;48.222;16.332;2024-01-30T01:09:57;2.60;99.90
17843;DHT22;69286;48.222;16.332;2024-01-30T01:12:25;2.60;99.90
17843;DHT22;69286;48.222;16.332;2024-01-30T01:14:52;2.60;99.90
17843;DHT22;69286;48.222;16.332;2024-01-30T01:17:19;2.60;99.90
17843;DHT22;69286;48.222;16.332;2024-01-30T01:19:46;2.60;99.90
17843;DHT22;69286;48.222;16.332;2024-01-30T01:22:13;2.50;99.90
17843;DHT22;69286;48.222;16.332;2024-01-30T01:24:40;2.50;99.90
17843;DHT22;69286;48.222;16.332;2024-01-30T01:27:07;2.50;99.90
17843;DHT22;69286;48.222;16.332;2024-01-30T01:29:35;2.50;99.90
17843;DHT22;69286;48.222;16.332;2024-01-30T01:32:03;2.50;99.90
17843;DHT22;69286;48.222;16.332;2024-01-30T01:34:30;2.40;99.90
17843;DHT22;69286;48.222;16.332;2024-01-30T01:36:57;2.50;99.90
17843;DHT22;69286;48.222;16.332;2024-01-30T01:39:24;2.40;99.90
17843;DHT22;69286;48.222;16.332;2024-01-30T01:41:51;2.50;99.90
17843;DHT22;69286;48.222;16.332;2024-01-30T01:44:18;2.50;99.90
17843;DHT22;69286;48.222;16.332;2024-01-30T01:46:46;2.40;99.90
17843;DHT22;69286;48.222;16.332;2024-01-30T01:49:14;2.40;99.90
17843;DHT22;69286;48.222;16.332;2024-01-30T01:51:42;2.40;99.90
17843;DHT22;69286;48.222;16.332;2024-01-30T01:54:10;2.50;99.90
17843;DHT22;69286;48.222;16.332;2024-01-30T01:56:38;2.60;99.90
17843;DHT22;69286;48.222;16.332;2024-01-30T01:59:06;2.50;99.90
17843;DHT22;69286;48.222;16.332;2024-01-30T02:01:34;2.40;99.90
17843;DHT22;69286;48.222;16.332;2024-01-30T02:04:02;2.40;99.90
17843;DHT22;69286;48.222;16.332;2024-01-30T02:06:29;2.40;99.90
17843;DHT22;69286;48.222;16.332;2024-01-30T02:08:56;2.40;99.90
17843;DHT22;69286;48.222;16.332;2024-01-30T02:11:24;2.40;99.90
17843;DHT22;69286;48.222;16.332;2024-01-30T02:13:51;2.40;99.90
17843;DHT22;69286;48.222;16.332;2024-01-30T02:16:18;2.40;99.90
17843;DHT22;69286;48.222;16.332;2024-01-30T02:18:45;2.40;99.90
17843;DHT22;69286;48.222;16.332;2024-01-30T02:21:15;2.40;99.90
17843;DHT22;69286;48.222;16.332;2024-01-30T02:23:43;2.40;99.90
17843;DHT22;69286;48.222;16.332;2024-01-30T02:26:11;2.30;99.90
17843;DHT22;69286;48.222;16.332;2024-01-30T02:28:38;2.30;99.90
17843;DHT22;69286;48.222;16.332;2024-01-30T02:31:05;2.40;99.90
17843;DHT22;69286;48.222;16.332;2024-01-30T02:33:32;2.40;99.90
17843;DHT22;69286;48.222;16.332;2024-01-30T02:35:59;2.40;99.90
17843;DHT22;69286;48.222;16.332;2024-01-30T02:38:28;2.30;99.90
17843;DHT22;69286;48.222;16.332;2024-01-30T02:40:55;2.30;99.90
17843;DHT22;69286;48.222;16.332;2024-01-30T02:43:22;2.30;99.90
17843;DHT22;69286;48.222;16.332;2024-01-30T02:45:49;2.30;99.90
17843;DHT22;69286;48.222;16.332;2024-01-30T02:48:16;2.30;99.90
17843;DHT22;69286;48.222;16.332;2024-01-30T02:50:43;2.30;99.90
17843;DHT22;69286;48.222;16.332;2024-01-30T02:53:11;2.30;99.90
17843;DHT22;69286;48.222;16.332;2024-01-30T02:55:39;2.30;99.90
17843;DHT22;69286;48.222;16.332;2024-01-30T02:58:06;2.30;99.90
17843;DHT22;69286;48.222;16.332;2024-01-30T03:00:34;2.30;99.90
17843;DHT22;69286;48.222;16.332;2024-01-30T03:03:01;2.30;99.90
17843;DHT22;69286;48.222;16.332;2024-01-30T03:05:28;2.30;99.90
17843;DHT22;69286;48.222;16.332;2024-01-30T03:07:55;2.30;99.90
17843;DHT22;69286;48.222;16.332;2024-01-30T03:10:22;2.30;99.90
17843;DHT22;69286;48.222;16.332;2024-01-30T03:12:51;2.30;99.90
17843;DHT22;69286;48.222;16.332;2024-01-30T03:15:17;2.30;99.90
17843;DHT22;69286;48.222;16.332;2024-01-30T03:17:44;2.30;99.90
17843;DHT22;69286;48.222;16.332;2024-01-30T03:20:12;2.30;99.90
17843;DHT22;69286;48.222;16.332;2024-01-30T03:22:38;2.30;99.90
17843;DHT22;69286;48.222;16.332;2024-01-30T03:25:06;2.30;99.90
17843;DHT22;69286;48.222;16.332;2024-01-30T03:27:33;2.30;99.90
17843;DHT22;69286;48.222;16.332;2024-01-30T03:30:01;2.20;99.90
17843;DHT22;69286;48.222;16.332;2024-01-30T03:32:28;2.20;99.90
17843;DHT22;69286;48.222;16.332;2024-01-30T03:34:55;2.10;99.90
17843;DHT22;69286;48.222;16.332;2024-01-30T03:37:23;2.60;99.90
17843;DHT22;69286;48.222;16.332;2024-01-30T03:39:50;2.10;99.90
17843;DHT22;69286;48.222;16.332;2024-01-30T03:42:17;2.10;99.90
17843;DHT22;69286;48.222;16.332;2024-01-30T03:44:44;2.10;99.90
17843;DHT22;69286;48.222;16.332;2024-01-30T03:47:13;2.10;99.90
17843;DHT22;69286;48.222;16.332;2024-01-30T03:49:40;2.10;99.90
17843;DHT22;69286;48.222;16.332;2024-01-30T03:52:07;2.00;99.90
17843;DHT22;69286;48.222;16.332;2024-01-30T03:54:34;2.00;99.90
17843;DHT22;69286;48.222;16.332;2024-01-30T03:57:01;2.00;99.90
17843;DHT22;69286;48.222;16.332;2024-01-30T03:59:28;1.90;99.90
17843;DHT22;69286;48.222;16.332;2024-01-30T04:01:55;1.90;99.90
17843;DHT22;69286;48.222;16.332;2024-01-30T04:04:23;1.90;99.90
17843;DHT22;69286;48.222;16.332;2024-01-30T04:06:50;1.90;99.90
17843;DHT22;69286;48.222;16.332;2024-01-30T04:09:17;1.90;99.90
17843;DHT22;69286;48.222;16.332;2024-01-30T04:11:44;1.90;99.90
17843;DHT22;69286;48.222;16.332;2024-01-30T04:14:11;1.90;99.90
17843;DHT22;69286;48.222;16.332;2024-01-30T04:16:38;1.90;99.90
17843;DHT22;69286;48.222;16.332;2024-01-30T04:19:05;2.00;99.90
17843;DHT22;69286;48.222;16.332;2024-01-30T04:21:33;1.90;99.90
17843;DHT22;69286;48.222;16.332;2024-01-30T04:24:00;1.80;99.90
17843;DHT22;69286;48.222;16.332;2024-01-30T04:26:27;1.80;99.90
17843;DHT22;69286;48.222;16.332;2024-01-30T04:28:54;1.70;99.90
17843;DHT22;69286;48.222;16.332;2024-01-30T04:31:21;1.70;99.90
17843;DHT22;69286;48.222;16.332;2024-01-30T04:33:48;1.70;99.90
17843;DHT22;69286;48.222;16.332;2024-01-30T04:36:15;1.60;99.90
17843;DHT22;69286;48.222;16.332;2024-01-30T04:38:43;1.60;99.90
17843;DHT22;69286;48.222;16.332;2024-01-30T04:41:10;2.30;99.90
17843;DHT22;69286;48.222;16.332;2024-01-30T04:43:37;1.50;99.90
17843;DHT22;69286;48.222;16.332;2024-01-30T04:46:04;1.40;99.90
17843;DHT22;69286;48.222;16.332;2024-01-30T04:48:31;1.50;99.90
17843;DHT22;69286;48.222;16.332;2024-01-30T04:50:58;1.50;99.90
17843;DHT22;69286;48.222;16.332;2024-01-30T04:53:29;1.40;99.90
17843;DHT22;69286;48.222;16.332;2024-01-30T04:55:58;1.40;99.90
17843;DHT22;69286;48.222;16.332;2024-01-30T04:58:25;1.40;99.90
17843;DHT22;69286;48.222;16.332;2024-01-30T05:00:52;1.40;99.90
17843;DHT22;69286;48.222;16.332;2024-01-30T05:03:19;1.40;99.90
17843;DHT22;69286;48.222;16.332;2024-01-30T05:05:48;1.40;99.90
17843;DHT22;69286;48.222;16.332;2024-01-30T05:08:15;1.40;99.90
17843;DHT22;69286;48.222;16.332;2024-01-30T05:10:42;1.30;99.90
17843;DHT22;69286;48.222;16.332;2024-01-30T05:13:10;1.30;99.90
17843;DHT22;69286;48.222;16.332;2024-01-30T05:15:39;1.30;99.90
17843;DHT22;69286;48.222;16.332;2024-01-30T05:18:06;1.30;99.90
17843;DHT22;69286;48.222;16.332;2024-01-30T05:20:33;1.30;99.90
17843;DHT22;69286;48.222;16.332;2024-01-30T05:23:00;1.20;99.90
17843;DHT22;69286;48.222;16.332;2024-01-30T05:25:27;1.20;99.90
17843;DHT22;69286;48.222;16.332;2024-01-30T05:27:54;1.20;99.90
17843;DHT22;69286;48.222;16.332;2024-01-30T05:30:23;1.20;99.90
17843;DHT22;69286;48.222;16.332;2024-01-30T05:32:50;1.20;99.90
17843;DHT22;69286;48.222;16.332;2024-01-30T05:35:18;1.20;99.90
17843;DHT22;69286;48.222;16.332;2024-01-30T05:37:47;1.20;99.90
17843;DHT22;69286;48.222;16.332;2024-01-30T05:40:14;1.30;99.90
17843;DHT22;69286;48.222;16.332;2024-01-30T05:42:42;1.30;99.90
17843;DHT22;69286;48.222;16.332;2024-01-30T05:45:09;1.30;99.90
17843;DHT22;69286;48.222;16.332;2024-01-30T05:47:38;1.20;99.90
17843;DHT22;69286;48.222;16.332;2024-01-30T05:50:06;1.20;99.90
17843;DHT22;69286;48.222;16.332;2024-01-30T05:52:33;1.20;99.90
17843;DHT22;69286;48.222;16.332;2024-01-30T05:55:01;1.30;99.90
17843;DHT22;69286;48.222;16.332;2024-01-30T05:57:28;2.00;99.90
17843;DHT22;69286;48.222;16.332;2024-01-30T05:59:55;1.30;99.90
17843;DHT22;69286;48.222;16.332;2024-01-30T06:02:22;1.30;99.90
17843;DHT22;69286;48.222;16.332;2024-01-30T06:04:50;1.30;99.90
17843;DHT22;69286;48.222;16.332;2024-01-30T06:07:17;1.30;99.90
17843;DHT22;69286;48.222;16.332;2024-01-30T06:09:44;1.30;99.90
17843;DHT22;69286;48.222;16.332;2024-01-30T06:12:12;1.40;99.90
17843;DHT22;69286;48.222;16.332;2024-01-30T06:14:39;1.30;99.90
17843;DHT22;69286;48.222;16.332;2024-01-30T06:17:08;1.30;99.90
17843;DHT22;69286;48.222;16.332;2024-01-30T06:19:35;1.40;99.90
17843;DHT22;69286;48.222;16.332;2024-01-30T06:22:06;1.40;99.90
17843;DHT22;69286;48.222;16.332;2024-01-30T06:24:33;1.40;99.90
17843;DHT22;69286;48.222;16.332;2024-01-30T06:27:00;1.40;99.90
17843;DHT22;69286;48.222;16.332;2024-01-30T06:29:27;1.40;99.90
17843;DHT22;69286;48.222;16.332;2024-01-30T06:31:54;1.40;99.90
17843;DHT22;69286;48.222;16.332;2024-01-30T06:34:22;1.40;99.90
17843;DHT22;69286;48.222;16.332;2024-01-30T06:36:49;1.40;99.90
17843;DHT22;69286;48.222;16.332;2024-01-30T06:39:17;1.50;99.90
17843;DHT22;69286;48.222;16.332;2024-01-30T06:41:44;1.50;99.90
17843;DHT22;69286;48.222;16.332;2024-01-30T06:44:12;1.50;99.90
17843;DHT22;69286;48.222;16.332;2024-01-30T06:46:39;1.50;99.90
17843;DHT22;69286;48.222;16.332;2024-01-30T06:49:06;1.60;99.90
17843;DHT22;69286;48.222;16.332;2024-01-30T06:51:33;1.70;99.90
17843;DHT22;69286;48.222;16.332;2024-01-30T06:54:00;1.80;99.90
17843;DHT22;69286;48.222;16.332;2024-01-30T06:56:29;1.90;99.90
17843;DHT22;69286;48.222;16.332;2024-01-30T06:58:56;2.00;99.90
17843;DHT22;69286;48.222;16.332;2024-01-30T07:01:27;2.00;99.90
17843;DHT22;69286;48.222;16.332;2024-01-30T07:03:55;2.00;99.90
17843;DHT22;69286;48.222;16.332;2024-01-30T07:06:22;2.10;99.90
17843;DHT22;69286;48.222;16.332;2024-01-30T07:08:49;2.20;99.90
17843;DHT22;69286;48.222;16.332;2024-01-30T07:11:18;2.30;99.90
17843;DHT22;69286;48.222;16.332;2024-01-30T07:13:47;2.50;99.90
17843;DHT22;69286;48.222;16.332;2024-01-30T07:16:14;2.60;99.90
17843;DHT22;69286;48.222;16.332;2024-01-30T07:18:41;2.70;99.90
17843;DHT22;69286;48.222;16.332;2024-01-30T07:21:08;2.90;99.90
17843;DHT22;69286;48.222;16.332;2024-01-30T07:23:35;3.00;99.90
17843;DHT22;69286;48.222;16.332;2024-01-30T07:26:04;3.10;99.90
17843;DHT22;69286;48.222;16.332;2024-01-30T07:28:32;3.20;99.90
17843;DHT22;69286;48.222;16.332;2024-01-30T07:31:00;3.30;99.90
17843;DHT22;69286;48.222;16.332;2024-01-30T07:33:28;3.50;99.90
17843;DHT22;69286;48.222;16.332;2024-01-30T07:35:55;3.60;99.90
17843;DHT22;69286;48.222;16.332;2024-01-30T07:38:22;3.70;99.90
17843;DHT22;69286;48.222;16.332;2024-01-30T07:40:49;3.80;99.90
17843;DHT22;69286;48.222;16.332;2024-01-30T07:43:16;3.90;99.90
17843;DHT22;69286;48.222;16.332;2024-01-30T07:45:45;4.00;99.90
17843;DHT22;69286;48.222;16.332;2024-01-30T07:48:13;4.00;99.90
17843;DHT22;69286;48.222;16.332;2024-01-30T07:50:40;4.00;99.90
17843;DHT22;69286;48.222;16.332;2024-01-30T07:53:07;4.10;99.90
17843;DHT22;69286;48.222;16.332;2024-01-30T07:55:55;4.20;99.90
17843;DHT22;69286;48.222;16.332;2024-01-30T07:58:22;4.40;99.90
17843;DHT22;69286;48.222;16.332;2024-01-30T08:00:49;4.50;99.90
17843;DHT22;69286;48.222;16.332;2024-01-30T08:03:20;4.70;99.90
17843;DHT22;69286;48.222;16.332;2024-01-30T08:05:46;4.90;99.90
17843;DHT22;69286;48.222;16.332;2024-01-30T08:08:14;5.00;99.90
17843;DHT22;69286;48.222;16.332;2024-01-30T08:10:41;5.10;99.90
17843;DHT22;69286;48.222;16.332;2024-01-30T08:13:08;5.20;99.90
17843;DHT22;69286;48.222;16.332;2024-01-30T08:15:35;5.20;99.90
17843;DHT22;69286;48.222;16.332;2024-01-30T08:18:02;5.30;99.90
17843;DHT22;69286;48.222;16.332;2024-01-30T08:20:31;5.40;99.90
17843;DHT22;69286;48.222;16.332;2024-01-30T08:22:58;5.40;99.90
17843;DHT22;69286;48.222;16.332;2024-01-30T08:25:26;5.40;99.90
17843;DHT22;69286;48.222;16.332;2024-01-30T08:27:52;5.40;99.90
17843;DHT22;69286;48.222;16.332;2024-01-30T08:30:19;5.50;99.90
17843;DHT22;69286;48.222;16.332;2024-01-30T08:32:46;5.60;99.90
17843;DHT22;69286;48.222;16.332;2024-01-30T08:35:13;5.70;99.90
17843;DHT22;69286;48.222;16.332;2024-01-30T08:37:43;5.60;99.90
17843;DHT22;69286;48.222;16.332;2024-01-30T08:40:10;5.50;99.90
17843;DHT22;69286;48.222;16.332;2024-01-30T08:42:37;5.50;99.90
17843;DHT22;69286;48.222;16.332;2024-01-30T08:45:05;5.60;99.90
17843;DHT22;69286;48.222;16.332;2024-01-30T08:47:32;5.70;99.90
17843;DHT22;69286;48.222;16.332;2024-01-30T08:49:59;5.80;99.90
17843;DHT22;69286;48.222;16.332;2024-01-30T08:52:26;5.90;99.90
17843;DHT22;69286;48.222;16.332;2024-01-30T08:54:54;6.00;99.90
17843;DHT22;69286;48.222;16.332;2024-01-30T08:57:21;6.00;99.90
17843;DHT22;69286;48.222;16.332;2024-01-30T08:59:48;6.10;99.90
17843;DHT22;69286;48.222;16.332;2024-01-30T09:02:15;6.20;99.90
17843;DHT22;69286;48.222;16.332;2024-01-30T09:04:43;6.30;99.90
17843;DHT22;69286;48.222;16.332;2024-01-30T09:07:10;6.40;99.90
17843;DHT22;69286;48.222;16.332;2024-01-30T09:09:39;6.30;99.90
17843;DHT22;69286;48.222;16.332;2024-01-30T09:12:08;6.40;99.90
17843;DHT22;69286;48.222;16.332;2024-01-30T09:14:37;6.50;99.90
17843;DHT22;69286;48.222;16.332;2024-01-30T09:17:04;6.60;99.90
17843;DHT22;69286;48.222;16.332;2024-01-30T09:19:31;6.70;99.90
17843;DHT22;69286;48.222;16.332;2024-01-30T09:21:58;6.80;99.90
17843;DHT22;69286;48.222;16.332;2024-01-30T09:24:26;6.80;99.90
17843;DHT22;69286;48.222;16.332;2024-01-30T09:26:53;6.90;99.90
17843;DHT22;69286;48.222;16.332;2024-01-30T09:29:21;7.00;99.90
17843;DHT22;69286;48.222;16.332;2024-01-30T09:31:48;6.90;99.90
17843;DHT22;69286;48.222;16.332;2024-01-30T09:34:15;6.90;99.90
17843;DHT22;69286;48.222;16.332;2024-01-30T09:36:42;6.90;99.90
17843;DHT22;69286;48.222;16.332;2024-01-30T09:39:09;6.90;99.90
17843;DHT22;69286;48.222;16.332;2024-01-30T09:41:43;7.00;99.90
17843;DHT22;69286;48.222;16.332;2024-01-30T09:44:11;7.10;99.90
17843;DHT22;69286;48.222;16.332;2024-01-30T09:46:40;7.20;99.90
17843;DHT22;69286;48.222;16.332;2024-01-30T09:49:09;7.20;99.90
17843;DHT22;69286;48.222;16.332;2024-01-30T09:51:36;7.30;99.90
17843;DHT22;69286;48.222;16.332;2024-01-30T09:54:04;7.50;99.90
17843;DHT22;69286;48.222;16.332;2024-01-30T09:56:31;7.70;99.90
17843;DHT22;69286;48.222;16.332;2024-01-30T09:58:58;7.80;99.60
17843;DHT22;69286;48.222;16.332;2024-01-30T10:01:25;7.90;99.30
17843;DHT22;69286;48.222;16.332;2024-01-30T10:03:55;7.80;99.00
17843;DHT22;69286;48.222;16.332;2024-01-30T10:06:24;7.80;99.00
17843;DHT22;69286;48.222;16.332;2024-01-30T10:08:51;8.00;99.20
17843;DHT22;69286;48.222;16.332;2024-01-30T10:11:18;8.00;99.30
17843;DHT22;69286;48.222;16.332;2024-01-30T10:13:45;8.10;98.90
17843;DHT22;69286;48.222;16.332;2024-01-30T10:16:13;8.00;98.90
17843;DHT22;69286;48.222;16.332;2024-01-30T10:18:41;8.10;98.70
17843;DHT22;69286;48.222;16.332;2024-01-30T10:21:09;8.20;98.60
17843;DHT22;69286;48.222;16.332;2024-01-30T10:23:36;8.40;98.20
17843;DHT22;69286;48.222;16.332;2024-01-30T10:26:04;8.40;98.10
17843;DHT22;69286;48.222;16.332;2024-01-30T10:28:31;8.50;97.90
17843;DHT22;69286;48.222;16.332;2024-01-30T10:30:58;8.50;97.70
17843;DHT22;69286;48.222;16.332;2024-01-30T10:33:26;8.50;97.90
17843;DHT22;69286;48.222;16.332;2024-01-30T10:35:55;8.40;97.80
17843;DHT22;69286;48.222;16.332;2024-01-30T10:38:29;8.40;97.60
17843;DHT22;69286;48.222;16.332;2024-01-30T10:40:57;8.50;98.20
17843;DHT22;69286;48.222;16.332;2024-01-30T10:43:30;8.60;97.70
17843;DHT22;69286;48.222;16.332;2024-01-30T10:45:58;8.70;97.20
17843;DHT22;69286;48.222;16.332;2024-01-30T10:48:30;8.70;97.20
17843;DHT22;69286;48.222;16.332;2024-01-30T10:51:00;8.60;97.30
17843;DHT22;69286;48.222;16.332;2024-01-30T10:53:31;8.50;97.40
17843;DHT22;69286;48.222;16.332;2024-01-30T10:55:58;8.60;97.10
17843;DHT22;69286;48.222;16.332;2024-01-30T10:58:27;8.40;97.40
17843;DHT22;69286;48.222;16.332;2024-01-30T11:00:55;8.20;98.00
17843;DHT22;69286;48.222;16.332;2024-01-30T11:03:22;8.40;97.90
17843;DHT22;69286;48.222;16.332;2024-01-30T11:05:50;8.40;97.70
17843;DHT22;69286;48.222;16.332;2024-01-30T11:08:24;8.40;97.50
17843;DHT22;69286;48.222;16.332;2024-01-30T11:10:57;8.40;97.50
17843;DHT22;69286;48.222;16.332;2024-01-30T11:13:27;8.40;97.80
17843;DHT22;69286;48.222;16.332;2024-01-30T11:15:55;8.40;97.80
17843;DHT22;69286;48.222;16.332;2024-01-30T11:18:25;8.50;97.50
17843;DHT22;69286;48.222;16.332;2024-01-30T11:20:52;8.50;97.60
17843;DHT22;69286;48.222;16.332;2024-01-30T11:23:22;8.50;97.80
17843;DHT22;69286;48.222;16.332;2024-01-30T11:25:49;8.60;97.50
17843;DHT22;69286;48.222;16.332;2024-01-30T11:28:21;8.60;97.50
17843;DHT22;69286;48.222;16.332;2024-01-30T11:30:48;8.60;97.60
17843;DHT22;69286;48.222;16.332;2024-01-30T11:33:27;8.70;97.60
17843;DHT22;69286;48.222;16.332;2024-01-30T11:35:57;8.60;97.80
17843;DHT22;69286;48.222;16.332;2024-01-30T11:38:26;8.70;97.20
17843;DHT22;69286;48.222;16.332;2024-01-30T11:40:54;8.70;97.40
17843;DHT22;69286;48.222;16.332;2024-01-30T11:43:23;8.60;97.50
17843;DHT22;69286;48.222;16.332;2024-01-30T11:45:50;8.70;97.30
17843;DHT22;69286;48.222;16.332;2024-01-30T11:48:17;8.60;97.60
17843;DHT22;69286;48.222;16.332;2024-01-30T11:50:44;8.80;96.90
17843;DHT22;69286;48.222;16.332;2024-01-30T11:53:11;8.90;96.60
17843;DHT22;69286;48.222;16.332;2024-01-30T11:55:38;8.80;96.20
17843;DHT22;69286;48.222;16.332;2024-01-30T11:58:05;8.70;95.70
17843;DHT22;69286;48.222;16.332;2024-01-30T12:00:33;8.50;96.00
17843;DHT22;69286;48.222;16.332;2024-01-30T12:03:00;8.50;96.30
17843;DHT22;69286;48.222;16.332;2024-01-30T12:05:29;8.40;96.20
17843;DHT22;69286;48.222;16.332;2024-01-30T12:07:56;8.20;96.50
17843;DHT22;69286;48.222;16.332;2024-01-30T12:10:24;8.10;96.80
17843;DHT22;69286;48.222;16.332;2024-01-30T12:12:52;8.00;97.10
17843;DHT22;69286;48.222;16.332;2024-01-30T12:15:22;8.10;96.80
17843;DHT22;69286;48.222;16.332;2024-01-30T12:17:50;8.00;96.80
17843;DHT22;69286;48.222;16.332;2024-01-30T12:20:18;7.80;97.20
17843;DHT22;69286;48.222;16.332;2024-01-30T12:22:48;7.80;97.50
17843;DHT22;69286;48.222;16.332;2024-01-30T12:25:17;7.80;97.60
17843;DHT22;69286;48.222;16.332;2024-01-30T12:27:45;7.80;97.70
17843;DHT22;69286;48.222;16.332;2024-01-30T12:30:15;7.80;98.00
17843;DHT22;69286;48.222;16.332;2024-01-30T12:32:43;7.70;98.00
17843;DHT22;69286;48.222;16.332;2024-01-30T12:35:12;7.60;98.10
17843;DHT22;69286;48.222;16.332;2024-01-30T12:37:40;7.50;98.00
17843;DHT22;69286;48.222;16.332;2024-01-30T12:40:08;7.50;98.40
17843;DHT22;69286;48.222;16.332;2024-01-30T12:42:36;7.50;98.60
17843;DHT22;69286;48.222;16.332;2024-01-30T12:45:03;7.50;98.70
17843;DHT22;69286;48.222;16.332;2024-01-30T12:47:30;7.60;98.70
17843;DHT22;69286;48.222;16.332;2024-01-30T12:49:57;7.60;98.40
17843;DHT22;69286;48.222;16.332;2024-01-30T12:52:26;7.50;98.40
17843;DHT22;69286;48.222;16.332;2024-01-30T12:54:53;7.50;98.50
17843;DHT22;69286;48.222;16.332;2024-01-30T12:57:20;7.50;98.40
17843;DHT22;69286;48.222;16.332;2024-01-30T12:59:47;7.30;98.80
17843;DHT22;69286;48.222;16.332;2024-01-30T13:02:15;7.30;99.10
17843;DHT22;69286;48.222;16.332;2024-01-30T13:04:43;7.30;99.10
17843;DHT22;69286;48.222;16.332;2024-01-30T13:07:10;7.40;99.10
17843;DHT22;69286;48.222;16.332;2024-01-30T13:09:38;7.40;98.90
17843;DHT22;69286;48.222;16.332;2024-01-30T13:12:06;7.40;98.60
17843;DHT22;69286;48.222;16.332;2024-01-30T13:14:33;7.30;98.50
17843;DHT22;69286;48.222;16.332;2024-01-30T13:17:00;7.30;98.50
17843;DHT22;69286;48.222;16.332;2024-01-30T13:19:27;7.30;98.60
17843;DHT22;69286;48.222;16.332;2024-01-30T13:21:54;7.30;98.80
17843;DHT22;69286;48.222;16.332;2024-01-30T13:24:21;7.30;98.90
17843;DHT22;69286;48.222;16.332;2024-01-30T13:26:49;7.30;98.80
17843;DHT22;69286;48.222;16.332;2024-01-30T13:29:16;7.30;98.80
17843;DHT22;69286;48.222;16.332;2024-01-30T13:31:43;7.40;98.50
17843;DHT22;69286;48.222;16.332;2024-01-30T13:34:12;7.40;98.30
17843;DHT22;69286;48.222;16.332;2024-01-30T13:36:40;7.40;98.30
17843;DHT22;69286;48.222;16.332;2024-01-30T13:39:07;7.30;98.20
17843;DHT22;69286;48.222;16.332;2024-01-30T13:41:36;7.30;98.40
17843;DHT22;69286;48.222;16.332;2024-01-30T13:44:05;7.30;98.10
17843;DHT22;69286;48.222;16.332;2024-01-30T13:46:32;7.30;97.90
17843;DHT22;69286;48.222;16.332;2024-01-30T13:48:59;7.30;98.30
17843;DHT22;69286;48.222;16.332;2024-01-30T13:51:25;7.30;98.40
17843;DHT22;69286;48.222;16.332;2024-01-30T13:53:52;7.30;98.60
17843;DHT22;69286;48.222;16.332;2024-01-30T13:56:19;7.40;98.40
17843;DHT22;69286;48.222;16.332;2024-01-30T13:58:48;7.40;98.50
17843;DHT22;69286;48.222;16.332;2024-01-30T14:01:16;7.40;98.40
17843;DHT22;69286;48.222;16.332;2024-01-30T14:03:43;7.40;98.40
17843;DHT22;69286;48.222;16.332;2024-01-30T14:06:11;7.30;98.70
17843;DHT22;69286;48.222;16.332;2024-01-30T14:08:38;7.30;98.80
17843;DHT22;69286;48.222;16.332;2024-01-30T14:11:05;7.30;98.80
17843;DHT22;69286;48.222;16.332;2024-01-30T14:13:32;7.30;98.70
17843;DHT22;69286;48.222;16.332;2024-01-30T14:15:59;7.30;98.90
17843;DHT22;69286;48.222;16.332;2024-01-30T14:18:27;7.30;98.90
17843;DHT22;69286;48.222;16.332;2024-01-30T14:20:54;7.30;98.60
17843;DHT22;69286;48.222;16.332;2024-01-30T14:23:21;7.30;98.80
17843;DHT22;69286;48.222;16.332;2024-01-30T14:25:48;7.20;98.90
17843;DHT22;69286;48.222;16.332;2024-01-30T14:28:17;7.30;99.00
17843;DHT22;69286;48.222;16.332;2024-01-30T14:30:44;7.30;99.00
17843;DHT22;69286;48.222;16.332;2024-01-30T14:33:11;7.20;99.20
17843;DHT22;69286;48.222;16.332;2024-01-30T14:35:39;7.20;99.20
17843;DHT22;69286;48.222;16.332;2024-01-30T14:38:06;7.20;99.20
17843;DHT22;69286;48.222;16.332;2024-01-30T14:40:34;7.10;99.40
17843;DHT22;69286;48.222;16.332;2024-01-30T14:43:01;7.20;99.40
17843;DHT22;69286;48.222;16.332;2024-01-30T14:45:29;7.20;99.50
17843;DHT22;69286;48.222;16.332;2024-01-30T14:47:57;7.10;99.70
17843;DHT22;69286;48.222;16.332;2024-01-30T14:50:25;7.20;99.70
17843;DHT22;69286;48.222;16.332;2024-01-30T14:52:53;7.10;99.70
17843;DHT22;69286;48.222;16.332;2024-01-30T14:55:20;7.10;99.90
17843;DHT22;69286;48.222;16.332;2024-01-30T14:57:47;7.10;99.90
17843;DHT22;69286;48.222;16.332;2024-01-30T15:00:15;7.10;99.90
17843;DHT22;69286;48.222;16.332;2024-01-30T15:02:42;7.10;99.90
17843;DHT22;69286;48.222;16.332;2024-01-30T15:05:09;7.00;99.90
17843;DHT22;69286;48.222;16.332;2024-01-30T15:07:37;7.00;99.90
17843;DHT22;69286;48.222;16.332;2024-01-30T15:10:06;7.00;99.90
17843;DHT22;69286;48.222;16.332;2024-01-30T15:12:33;7.00;99.90
17843;DHT22;69286;48.222;16.332;2024-01-30T15:15:00;7.00;99.90
17843;DHT22;69286;48.222;16.332;2024-01-30T15:17:27;7.00;99.90
17843;DHT22;69286;48.222;16.332;2024-01-30T15:19:54;6.90;99.90
17843;DHT22;69286;48.222;16.332;2024-01-30T15:22:21;6.90;99.90
17843;DHT22;69286;48.222;16.332;2024-01-30T15:24:48;6.80;99.90
17843;DHT22;69286;48.222;16.332;2024-01-30T15:27:16;6.80;99.90
17843;DHT22;69286;48.222;16.332;2024-01-30T15:29:45;6.80;99.90
17843;DHT22;69286;48.222;16.332;2024-01-30T15:32:12;6.70;99.90